sensor_id;sensor_type;location;lat;lon;timestamp;temperature;humidity
18101;DHT22;9177;49.156;8.142;2023-11-21T00:00:14;20.00;95.80
18101;DHT22;9177;49.156;8.142;2023-11-21T00:02:41;20.00;95.80
18101;DHT22;9177;49.156;8.142;2023-11-21T00:05:12;20.00;95.80
18101;DHT22;9177;49.156;8.142;2023-11-21T00:07:41;20.00;95.80
18101;DHT22;9177;49.156;8.142;2023-11-21T00:10:09;20.00;95.80
18101;DHT22;9177;49.156;8.142;2023-11-21T00:12:40;20.00;95.90
18101;DHT22;9177;49.156;8.142;2023-11-21T00:15:08;20.00;95.90
18101;DHT22;9177;49.156;8.142;2023-11-21T00:17:37;20.00;95.90
18101;DHT22;9177;49.156;8.142;2023-11-21T00:20:05;20.00;95.90
18101;DHT22;9177;49.156;8.142;2023-11-21T00:22:34;19.90;95.90
18101;DHT22;9177;49.156;8.142;2023-11-21T00:25:02;19.90;95.90
18101;DHT22;9177;49.156;8.142;2023-11-21T00:27:29;19.90;95.90
18101;DHT22;9177;49.156;8.142;2023-11-21T00:29:56;19.90;96.00
18101;DHT22;9177;49.156;8.142;2023-11-21T00:32:23;19.90;96.00
18101;DHT22;9177;49.156;8.142;2023-11-21T00:34:50;19.90;96.00
18101;DHT22;9177;49.156;8.142;2023-11-21T00:37:17;19.90;96.00
18101;DHT22;9177;49.156;8.142;2023-11-21T00:39:46;19.90;96.00
18101;DHT22;9177;49.156;8.142;2023-11-21T00:42:13;19.90;96.00
18101;DHT22;9177;49.156;8.142;2023-11-21T00:44:39;19.90;96.00
18101;DHT22;9177;49.156;8.142;2023-11-21T00:47:06;19.90;96.00
18101;DHT22;9177;49.156;8.142;2023-11-21T00:49:33;19.90;96.00
18101;DHT22;9177;49.156;8.142;2023-11-21T00:52:00;19.90;96.00
18101;DHT22;9177;49.156;8.142;2023-11-21T00:54:28;19.90;96.00
18101;DHT22;9177;49.156;8.142;2023-11-21T00:56:57;19.90;96.00
18101;DHT22;9177;49.156;8.142;2023-11-21T00:59:24;19.90;96.10
18101;DHT22;9177;49.156;8.142;2023-11-21T01:01:51;19.90;96.10
18101;DHT22;9177;49.156;8.142;2023-11-21T01:04:18;19.90;96.10
18101;DHT22;9177;49.156;8.142;2023-11-21T01:06:45;19.90;96.10
18101;DHT22;9177;49.156;8.142;2023-11-21T01:09:12;19.90;96.10
18101;DHT22;9177;49.156;8.142;2023-11-21T01:11:39;19.80;96.10
18101;DHT22;9177;49.156;8.142;2023-11-21T01:14:07;19.90;96.10
18101;DHT22;9177;49.156;8.142;2023-11-21T01:16:36;19.90;96.10
18101;DHT22;9177;49.156;8.142;2023-11-21T01:19:03;19.90;96.20
18101;DHT22;9177;49.156;8.142;2023-11-21T01:21:30;19.80;96.10
18101;DHT22;9177;49.156;8.142;2023-11-21T01:23:57;19.80;96.20
18101;DHT22;9177;49.156;8.142;2023-11-21T01:26:24;19.80;96.20
18101;DHT22;9177;49.156;8.142;2023-11-21T01:28:51;19.80;96.20
18101;DHT22;9177;49.156;8.142;2023-11-21T01:31:19;19.80;96.20
18101;DHT22;9177;49.156;8.142;2023-11-21T01:33:46;19.80;96.20
18101;DHT22;9177;49.156;8.142;2023-11-21T01:36:14;19.80;96.20
18101;DHT22;9177;49.156;8.142;2023-11-21T01:38:41;19.80;96.20
18101;DHT22;9177;49.156;8.142;2023-11-21T01:41:08;19.80;96.20
18101;DHT22;9177;49.156;8.142;2023-11-21T01:43:36;19.80;96.20
18101;DHT22;9177;49.156;8.142;2023-11-21T01:46:04;19.80;96.60
18101;DHT22;9177;49.156;8.142;2023-11-21T01:48:33;19.80;96.20
18101;DHT22;9177;49.156;8.142;2023-11-21T01:51:01;19.80;96.20
18101;DHT22;9177;49.156;8.142;2023-11-21T01:53:28;19.80;96.20
18101;DHT22;9177;49.156;8.142;2023-11-21T01:55:55;19.80;96.20
18101;DHT22;9177;49.156;8.142;2023-11-21T01:58:23;19.80;96.30
18101;DHT22;9177;49.156;8.142;2023-11-21T02:00:55;19.80;96.30
18101;DHT22;9177;49.156;8.142;2023-11-21T02:03:22;19.80;96.30
18101;DHT22;9177;49.156;8.142;2023-11-21T02:05:50;19.80;96.30
18101;DHT22;9177;49.156;8.142;2023-11-21T02:08:17;19.80;96.30
18101;DHT22;9177;49.156;8.142;2023-11-21T02:10:45;19.80;96.30
18101;DHT22;9177;49.156;8.142;2023-11-21T02:13:13;19.80;96.30
18101;DHT22;9177;49.156;8.142;2023-11-21T02:15:40;19.80;96.30
18101;DHT22;9177;49.156;8.142;2023-11-21T02:18:07;19.80;96.30
18101;DHT22;9177;49.156;8.142;2023-11-21T02:20:37;19.80;96.30
18101;DHT22;9177;49.156;8.142;2023-11-21T02:23:05;19.80;96.40
18101;DHT22;9177;49.156;8.142;2023-11-21T02:25:33;19.80;96.30
18101;DHT22;9177;49.156;8.142;2023-11-21T02:28:03;19.80;96.40
18101;DHT22;9177;49.156;8.142;2023-11-21T02:30:31;19.80;96.40
18101;DHT22;9177;49.156;8.142;2023-11-21T02:32:58;19.80;96.40
18101;DHT22;9177;49.156;8.142;2023-11-21T02:35:25;19.80;96.40
18101;DHT22;9177;49.156;8.142;2023-11-21T02:37:52;19.80;96.40
18101;DHT22;9177;49.156;8.142;2023-11-21T02:40:21;19.80;96.40
18101;DHT22;9177;49.156;8.142;2023-11-21T02:42:50;19.80;96.40
18101;DHT22;9177;49.156;8.142;2023-11-21T02:45:18;19.80;96.40
18101;DHT22;9177;49.156;8.142;2023-11-21T02:47:46;19.80;96.40
18101;DHT22;9177;49.156;8.142;2023-11-21T02:50:14;19.80;96.40
18101;DHT22;9177;49.156;8.142;2023-11-21T02:52:41;19.80;96.40
18101;DHT22;9177;49.156;8.142;2023-11-21T02:55:09;19.80;96.40
18101;DHT22;9177;49.156;8.142;2023-11-21T02:57:38;19.80;96.40
18101;DHT22;9177;49.156;8.142;2023-11-21T03:00:07;19.80;96.40
18101;DHT22;9177;49.156;8.142;2023-11-21T03:02:34;19.80;96.50
18101;DHT22;9177;49.156;8.142;2023-11-21T03:05:02;19.80;96.40
18101;DHT22;9177;49.156;8.142;2023-11-21T03:07:30;19.70;96.40
18101;DHT22;9177;49.156;8.142;2023-11-21T03:09:57;19.80;96.50
18101;DHT22;9177;49.156;8.142;2023-11-21T03:12:24;19.70;96.50
18101;DHT22;9177;49.156;8.142;2023-11-21T03:14:52;19.70;96.40
18101;DHT22;9177;49.156;8.142;2023-11-21T03:17:19;19.70;96.50
18101;DHT22;9177;49.156;8.142;2023-11-21T03:19:46;19.70;96.40
18101;DHT22;9177;49.156;8.142;2023-11-21T03:22:13;19.70;96.50
18101;DHT22;9177;49.156;8.142;2023-11-21T03:24:40;19.70;96.50
18101;DHT22;9177;49.156;8.142;2023-11-21T03:27:07;19.70;96.50
18101;DHT22;9177;49.156;8.142;2023-11-21T03:29:34;19.70;96.50
18101;DHT22;9177;49.156;8.142;2023-11-21T03:32:02;19.70;96.80
18101;DHT22;9177;49.156;8.142;2023-11-21T03:34:30;19.70;96.50
18101;DHT22;9177;49.156;8.142;2023-11-21T03:36:57;19.70;96.50
18101;DHT22;9177;49.156;8.142;2023-11-21T03:39:24;19.70;96.80
18101;DHT22;9177;49.156;8.142;2023-11-21T03:41:51;19.70;96.50
18101;DHT22;9177;49.156;8.142;2023-11-21T03:44:18;19.70;96.50
18101;DHT22;9177;49.156;8.142;2023-11-21T03:46:45;19.70;96.50
18101;DHT22;9177;49.156;8.142;2023-11-21T03:49:13;19.70;96.50
18101;DHT22;9177;49.156;8.142;2023-11-21T03:51:40;19.70;96.50
18101;DHT22;9177;49.156;8.142;2023-11-21T03:54:06;19.70;96.50
18101;DHT22;9177;49.156;8.142;2023-11-21T03:56:32;19.70;96.50
18101;DHT22;9177;49.156;8.142;2023-11-21T03:58:59;19.70;96.50
18101;DHT22;9177;49.156;8.142;2023-11-21T04:01:26;19.70;96.70
18101;DHT22;9177;49.156;8.142;2023-11-21T04:03:53;19.70;96.50
18101;DHT22;9177;49.156;8.142;2023-11-21T04:06:24;19.70;96.60
18101;DHT22;9177;49.156;8.142;2023-11-21T04:08:51;19.70;96.50
18101;DHT22;9177;49.156;8.142;2023-11-21T04:11:18;19.70;96.60
18101;DHT22;9177;49.156;8.142;2023-11-21T04:13:44;19.70;96.60
18101;DHT22;9177;49.156;8.142;2023-11-21T04:16:13;19.70;96.60
18101;DHT22;9177;49.156;8.142;2023-11-21T04:18:40;19.70;96.60
18101;DHT22;9177;49.156;8.142;2023-11-21T04:21:10;19.80;96.50
18101;DHT22;9177;49.156;8.142;2023-11-21T04:23:38;20.00;96.20
18101;DHT22;9177;49.156;8.142;2023-11-21T04:26:06;20.30;95.90
18101;DHT22;9177;49.156;8.142;2023-11-21T04:28:33;20.50;95.50
18101;DHT22;9177;49.156;8.142;2023-11-21T04:31:00;20.80;95.20
18101;DHT22;9177;49.156;8.142;2023-11-21T04:33:27;21.10;94.80
18101;DHT22;9177;49.156;8.142;2023-11-21T04:35:54;21.40;94.40
18101;DHT22;9177;49.156;8.142;2023-11-21T04:38:21;21.60;94.10
18101;DHT22;9177;49.156;8.142;2023-11-21T04:40:49;21.80;93.90
18101;DHT22;9177;49.156;8.142;2023-11-21T04:43:16;22.00;93.60
18101;DHT22;9177;49.156;8.142;2023-11-21T04:45:44;22.10;93.40
18101;DHT22;9177;49.156;8.142;2023-11-21T04:48:10;22.20;93.20
18101;DHT22;9177;49.156;8.142;2023-11-21T04:50:37;22.40;93.50
18101;DHT22;9177;49.156;8.142;2023-11-21T04:53:04;22.50;93.00
18101;DHT22;9177;49.156;8.142;2023-11-21T04:55:31;22.50;92.90
18101;DHT22;9177;49.156;8.142;2023-11-21T04:57:59;22.60;92.80
18101;DHT22;9177;49.156;8.142;2023-11-21T05:00:26;22.60;92.70
18101;DHT22;9177;49.156;8.142;2023-11-21T05:02:53;22.70;92.60
18101;DHT22;9177;49.156;8.142;2023-11-21T05:08:43;22.80;92.50
18101;DHT22;9177;49.156;8.142;2023-11-21T05:11:09;22.60;92.60
18101;DHT22;9177;49.156;8.142;2023-11-21T05:13:38;22.60;92.60
18101;DHT22;9177;49.156;8.142;2023-11-21T05:16:06;22.50;92.70
18101;DHT22;9177;49.156;8.142;2023-11-21T05:18:33;22.50;92.90
18101;DHT22;9177;49.156;8.142;2023-11-21T05:21:00;22.60;92.70
18101;DHT22;9177;49.156;8.142;2023-11-21T05:23:27;22.60;92.70
18101;DHT22;9177;49.156;8.142;2023-11-21T05:25:54;22.70;92.60
18101;DHT22;9177;49.156;8.142;2023-11-21T05:28:21;22.80;92.60
18101;DHT22;9177;49.156;8.142;2023-11-21T05:30:50;22.80;92.50
18101;DHT22;9177;49.156;8.142;2023-11-21T05:33:17;22.90;92.40
18101;DHT22;9177;49.156;8.142;2023-11-21T05:35:44;22.90;92.30
18101;DHT22;9177;49.156;8.142;2023-11-21T05:38:11;22.90;92.30
18101;DHT22;9177;49.156;8.142;2023-11-21T05:40:38;22.90;92.40
18101;DHT22;9177;49.156;8.142;2023-11-21T05:43:06;22.80;92.40
18101;DHT22;9177;49.156;8.142;2023-11-21T05:45:33;22.70;92.50
18101;DHT22;9177;49.156;8.142;2023-11-21T05:48:02;22.70;92.60
18101;DHT22;9177;49.156;8.142;2023-11-21T05:50:29;22.70;92.70
18101;DHT22;9177;49.156;8.142;2023-11-21T05:52:56;22.70;92.60
18101;DHT22;9177;49.156;8.142;2023-11-21T05:55:25;22.70;92.60
18101;DHT22;9177;49.156;8.142;2023-11-21T05:57:52;22.80;92.50
18101;DHT22;9177;49.156;8.142;2023-11-21T06:00:20;22.90;92.80
18101;DHT22;9177;49.156;8.142;2023-11-21T06:02:47;23.00;92.40
18101;DHT22;9177;49.156;8.142;2023-11-21T06:05:18;23.00;92.30
18101;DHT22;9177;49.156;8.142;2023-11-21T06:07:45;22.90;92.30
18101;DHT22;9177;49.156;8.142;2023-11-21T06:10:15;22.90;92.40
18101;DHT22;9177;49.156;8.142;2023-11-21T06:12:45;22.90;92.40
18101;DHT22;9177;49.156;8.142;2023-11-21T06:15:12;22.80;92.40
18101;DHT22;9177;49.156;8.142;2023-11-21T06:17:41;22.80;92.50
18101;DHT22;9177;49.156;8.142;2023-11-21T06:20:09;22.80;92.60
18101;DHT22;9177;49.156;8.142;2023-11-21T06:22:41;22.80;92.60
18101;DHT22;9177;49.156;8.142;2023-11-21T06:25:09;22.80;92.50
18101;DHT22;9177;49.156;8.142;2023-11-21T06:27:40;22.90;92.40
18101;DHT22;9177;49.156;8.142;2023-11-21T06:30:08;23.00;92.40
18101;DHT22;9177;49.156;8.142;2023-11-21T06:32:35;23.00;92.30
18101;DHT22;9177;49.156;8.142;2023-11-21T06:35:02;23.00;92.30
18101;DHT22;9177;49.156;8.142;2023-11-21T06:37:30;23.00;92.30
18101;DHT22;9177;49.156;8.142;2023-11-21T06:39:59;23.00;92.20
18101;DHT22;9177;49.156;8.142;2023-11-21T06:42:26;23.00;92.30
18101;DHT22;9177;49.156;8.142;2023-11-21T06:44:54;23.00;92.30
18101;DHT22;9177;49.156;8.142;2023-11-21T06:47:22;23.00;92.40
18101;DHT22;9177;49.156;8.142;2023-11-21T06:49:50;23.00;92.40
18101;DHT22;9177;49.156;8.142;2023-11-21T06:52:18;23.00;92.40
18101;DHT22;9177;49.156;8.142;2023-11-21T06:54:45;23.00;92.40
18101;DHT22;9177;49.156;8.142;2023-11-21T06:57:14;23.00;92.30
18101;DHT22;9177;49.156;8.142;2023-11-21T06:59:42;23.10;92.30
18101;DHT22;9177;49.156;8.142;2023-11-21T07:02:12;23.10;92.20
18101;DHT22;9177;49.156;8.142;2023-11-21T07:04:39;23.10;92.20
18101;DHT22;9177;49.156;8.142;2023-11-21T07:07:06;23.10;92.30
18101;DHT22;9177;49.156;8.142;2023-11-21T07:09:33;23.00;92.30
18101;DHT22;9177;49.156;8.142;2023-11-21T07:12:01;23.00;92.40
18101;DHT22;9177;49.156;8.142;2023-11-21T07:14:30;23.00;92.40
18101;DHT22;9177;49.156;8.142;2023-11-21T07:16:57;22.90;92.40
18101;DHT22;9177;49.156;8.142;2023-11-21T07:19:24;22.90;92.50
18101;DHT22;9177;49.156;8.142;2023-11-21T07:21:51;22.90;92.40
18101;DHT22;9177;49.156;8.142;2023-11-21T07:24:18;23.00;92.40
18101;DHT22;9177;49.156;8.142;2023-11-21T07:26:46;23.00;92.80
18101;DHT22;9177;49.156;8.142;2023-11-21T07:29:13;23.00;92.30
18101;DHT22;9177;49.156;8.142;2023-11-21T07:31:41;23.10;92.30
18101;DHT22;9177;49.156;8.142;2023-11-21T07:34:08;23.00;92.30
18101;DHT22;9177;49.156;8.142;2023-11-21T07:36:37;23.00;92.40
18101;DHT22;9177;49.156;8.142;2023-11-21T07:39:04;23.00;92.40
18101;DHT22;9177;49.156;8.142;2023-11-21T07:41:32;23.00;92.40
18101;DHT22;9177;49.156;8.142;2023-11-21T07:43:59;23.00;92.40
18101;DHT22;9177;49.156;8.142;2023-11-21T07:46:26;23.00;92.40
18101;DHT22;9177;49.156;8.142;2023-11-21T07:48:55;23.00;92.40
18101;DHT22;9177;49.156;8.142;2023-11-21T07:51:22;23.00;92.40
18101;DHT22;9177;49.156;8.142;2023-11-21T07:53:48;23.00;92.40
18101;DHT22;9177;49.156;8.142;2023-11-21T07:56:15;23.00;92.40
18101;DHT22;9177;49.156;8.142;2023-11-21T07:58:43;22.80;93.30
18101;DHT22;9177;49.156;8.142;2023-11-21T08:01:11;22.90;93.10
18101;DHT22;9177;49.156;8.142;2023-11-21T08:03:38;23.00;92.90
18101;DHT22;9177;49.156;8.142;2023-11-21T08:06:07;23.10;92.80
18101;DHT22;9177;49.156;8.142;2023-11-21T08:08:34;23.20;92.70
18101;DHT22;9177;49.156;8.142;2023-11-21T08:11:01;23.10;92.70
18101;DHT22;9177;49.156;8.142;2023-11-21T08:13:29;23.10;92.80
18101;DHT22;9177;49.156;8.142;2023-11-21T08:15:58;23.10;92.80
18101;DHT22;9177;49.156;8.142;2023-11-21T08:18:28;23.00;92.80
18101;DHT22;9177;49.156;8.142;2023-11-21T08:20:56;23.00;92.80
18101;DHT22;9177;49.156;8.142;2023-11-21T08:23:24;23.10;92.80
18101;DHT22;9177;49.156;8.142;2023-11-21T08:25:52;23.00;92.90
18101;DHT22;9177;49.156;8.142;2023-11-21T08:28:20;23.00;92.90
18101;DHT22;9177;49.156;8.142;2023-11-21T08:30:48;23.00;92.90
18101;DHT22;9177;49.156;8.142;2023-11-21T08:33:15;23.00;92.90
18101;DHT22;9177;49.156;8.142;2023-11-21T08:35:42;23.00;93.00
18101;DHT22;9177;49.156;8.142;2023-11-21T08:38:09;23.00;93.10
18101;DHT22;9177;49.156;8.142;2023-11-21T08:40:38;23.10;93.30
18101;DHT22;9177;49.156;8.142;2023-11-21T08:43:05;23.10;93.50
18101;DHT22;9177;49.156;8.142;2023-11-21T08:45:32;23.10;93.60
18101;DHT22;9177;49.156;8.142;2023-11-21T08:48:00;23.00;93.50
18101;DHT22;9177;49.156;8.142;2023-11-21T08:50:27;23.00;93.50
18101;DHT22;9177;49.156;8.142;2023-11-21T08:52:54;23.10;93.50
18101;DHT22;9177;49.156;8.142;2023-11-21T08:55:22;23.10;93.60
18101;DHT22;9177;49.156;8.142;2023-11-21T08:57:50;23.10;93.50
18101;DHT22;9177;49.156;8.142;2023-11-21T09:00:18;23.10;93.50
18101;DHT22;9177;49.156;8.142;2023-11-21T09:02:45;23.10;93.40
18101;DHT22;9177;49.156;8.142;2023-11-21T09:05:14;23.10;93.40
18101;DHT22;9177;49.156;8.142;2023-11-21T09:07:42;23.10;93.40
18101;DHT22;9177;49.156;8.142;2023-11-21T09:10:09;23.10;93.40
18101;DHT22;9177;49.156;8.142;2023-11-21T09:12:37;23.10;93.40
18101;DHT22;9177;49.156;8.142;2023-11-21T09:15:07;23.10;93.40
18101;DHT22;9177;49.156;8.142;2023-11-21T09:17:35;23.10;93.40
18101;DHT22;9177;49.156;8.142;2023-11-21T09:20:03;23.10;93.40
18101;DHT22;9177;49.156;8.142;2023-11-21T09:22:31;23.10;93.40
18101;DHT22;9177;49.156;8.142;2023-11-21T09:24:59;23.10;93.30
18101;DHT22;9177;49.156;8.142;2023-11-21T09:27:26;23.10;93.30
18101;DHT22;9177;49.156;8.142;2023-11-21T09:29:56;23.10;93.30
18101;DHT22;9177;49.156;8.142;2023-11-21T09:32:25;23.20;93.30
18101;DHT22;9177;49.156;8.142;2023-11-21T09:34:52;23.20;93.20
18101;DHT22;9177;49.156;8.142;2023-11-21T09:37:21;23.20;93.30
18101;DHT22;9177;49.156;8.142;2023-11-21T09:39:48;23.20;93.30
18101;DHT22;9177;49.156;8.142;2023-11-21T09:42:18;23.20;93.30
18101;DHT22;9177;49.156;8.142;2023-11-21T09:44:54;23.20;93.20
18101;DHT22;9177;49.156;8.142;2023-11-21T09:47:28;23.20;93.20
18101;DHT22;9177;49.156;8.142;2023-11-21T09:49:56;23.20;93.20
18101;DHT22;9177;49.156;8.142;2023-11-21T09:52:28;23.20;93.20
18101;DHT22;9177;49.156;8.142;2023-11-21T09:54:56;23.20;93.10
18101;DHT22;9177;49.156;8.142;2023-11-21T09:57:24;23.20;93.20
18101;DHT22;9177;49.156;8.142;2023-11-21T09:59:57;23.20;93.20
18101;DHT22;9177;49.156;8.142;2023-11-21T10:02:28;23.20;93.20
18101;DHT22;9177;49.156;8.142;2023-11-21T10:04:56;23.10;93.20
18101;DHT22;9177;49.156;8.142;2023-11-21T10:07:25;23.20;93.20
18101;DHT22;9177;49.156;8.142;2023-11-21T10:09:53;23.20;93.20
18101;DHT22;9177;49.156;8.142;2023-11-21T10:12:23;23.20;93.20
18101;DHT22;9177;49.156;8.142;2023-11-21T10:14:52;23.20;93.20
18101;DHT22;9177;49.156;8.142;2023-11-21T10:17:24;23.20;93.10
18101;DHT22;9177;49.156;8.142;2023-11-21T10:19:53;23.20;93.10
18101;DHT22;9177;49.156;8.142;2023-11-21T10:22:22;23.20;93.10
18101;DHT22;9177;49.156;8.142;2023-11-21T10:24:49;23.20;93.10
18101;DHT22;9177;49.156;8.142;2023-11-21T10:27:16;23.20;93.10
18101;DHT22;9177;49.156;8.142;2023-11-21T10:29:43;23.20;93.20
18101;DHT22;9177;49.156;8.142;2023-11-21T10:32:12;23.20;93.20
18101;DHT22;9177;49.156;8.142;2023-11-21T10:34:39;23.20;93.20
18101;DHT22;9177;49.156;8.142;2023-11-21T10:37:17;23.20;93.20
18101;DHT22;9177;49.156;8.142;2023-11-21T10:39:48;23.20;93.20
18101;DHT22;9177;49.156;8.142;2023-11-21T10:42:18;23.20;93.20
18101;DHT22;9177;49.156;8.142;2023-11-21T10:44:46;23.20;93.20
18101;DHT22;9177;49.156;8.142;2023-11-21T10:47:14;23.20;93.20
18101;DHT22;9177;49.156;8.142;2023-11-21T10:49:41;23.20;93.20
18101;DHT22;9177;49.156;8.142;2023-11-21T10:52:08;23.20;93.20
18101;DHT22;9177;49.156;8.142;2023-11-21T10:54:44;23.20;93.20
18101;DHT22;9177;49.156;8.142;2023-11-21T10:57:13;23.20;93.20
18101;DHT22;9177;49.156;8.142;2023-11-21T10:59:46;23.20;93.20
18101;DHT22;9177;49.156;8.142;2023-11-21T11:02:21;23.20;93.20
18101;DHT22;9177;49.156;8.142;2023-11-21T11:04:52;23.20;93.20
18101;DHT22;9177;49.156;8.142;2023-11-21T11:07:23;23.20;93.20
18101;DHT22;9177;49.156;8.142;2023-11-21T11:09:54;23.20;93.20
18101;DHT22;9177;49.156;8.142;2023-11-21T11:12:22;23.20;93.60
18101;DHT22;9177;49.156;8.142;2023-11-21T11:14:49;23.20;93.20
18101;DHT22;9177;49.156;8.142;2023-11-21T11:17:17;23.20;93.30
18101;DHT22;9177;49.156;8.142;2023-11-21T11:19:46;23.20;93.30
18101;DHT22;9177;49.156;8.142;2023-11-21T11:22:21;23.20;93.30
18101;DHT22;9177;49.156;8.142;2023-11-21T11:25:09;23.20;93.20
18101;DHT22;9177;49.156;8.142;2023-11-21T11:27:48;23.20;93.30
18101;DHT22;9177;49.156;8.142;2023-11-21T11:30:30;23.20;93.30
18101;DHT22;9177;49.156;8.142;2023-11-21T11:33:09;23.20;93.20
18101;DHT22;9177;49.156;8.142;2023-11-21T11:35:45;23.20;93.20
18101;DHT22;9177;49.156;8.142;2023-11-21T11:38:14;23.20;93.30
18101;DHT22;9177;49.156;8.142;2023-11-21T11:40:45;23.20;93.20
18101;DHT22;9177;49.156;8.142;2023-11-21T11:43:13;23.30;93.20
18101;DHT22;9177;49.156;8.142;2023-11-21T11:45:41;23.20;93.20
18101;DHT22;9177;49.156;8.142;2023-11-21T11:48:10;23.30;93.20
18101;DHT22;9177;49.156;8.142;2023-11-21T11:50:53;23.20;93.20
18101;DHT22;9177;49.156;8.142;2023-11-21T11:53:34;23.30;93.20
18101;DHT22;9177;49.156;8.142;2023-11-21T11:56:27;23.30;93.30
18101;DHT22;9177;49.156;8.142;2023-11-21T11:58:56;23.30;93.20
18101;DHT22;9177;49.156;8.142;2023-11-21T12:01:25;23.20;93.30
18101;DHT22;9177;49.156;8.142;2023-11-21T12:07:01;23.20;93.30
18101;DHT22;9177;49.156;8.142;2023-11-21T12:09:31;23.20;93.40
18101;DHT22;9177;49.156;8.142;2023-11-21T12:12:00;23.20;93.30
18101;DHT22;9177;49.156;8.142;2023-11-21T12:14:27;23.20;93.30
18101;DHT22;9177;49.156;8.142;2023-11-21T12:16:55;23.20;93.30
18101;DHT22;9177;49.156;8.142;2023-11-21T12:19:22;23.20;93.30
18101;DHT22;9177;49.156;8.142;2023-11-21T12:21:49;23.30;93.30
18101;DHT22;9177;49.156;8.142;2023-11-21T12:24:17;23.30;93.30
18101;DHT22;9177;49.156;8.142;2023-11-21T12:26:47;23.30;93.30
18101;DHT22;9177;49.156;8.142;2023-11-21T12:29:16;23.30;93.30
18101;DHT22;9177;49.156;8.142;2023-11-21T12:31:45;23.30;93.40
18101;DHT22;9177;49.156;8.142;2023-11-21T12:34:12;23.30;93.30
18101;DHT22;9177;49.156;8.142;2023-11-21T12:36:40;23.20;93.30
18101;DHT22;9177;49.156;8.142;2023-11-21T12:39:07;23.30;93.70
18101;DHT22;9177;49.156;8.142;2023-11-21T12:41:36;23.30;93.30
18101;DHT22;9177;49.156;8.142;2023-11-21T12:44:04;23.30;93.30
18101;DHT22;9177;49.156;8.142;2023-11-21T12:46:41;23.30;93.30
18101;DHT22;9177;49.156;8.142;2023-11-21T12:49:11;23.30;93.30
18101;DHT22;9177;49.156;8.142;2023-11-21T12:51:43;23.30;93.40
18101;DHT22;9177;49.156;8.142;2023-11-21T12:54:12;23.30;93.40
18101;DHT22;9177;49.156;8.142;2023-11-21T12:56:39;23.30;93.40
18101;DHT22;9177;49.156;8.142;2023-11-21T12:59:07;23.30;93.40
18101;DHT22;9177;49.156;8.142;2023-11-21T13:01:41;23.40;93.40
18101;DHT22;9177;49.156;8.142;2023-11-21T13:04:08;23.40;93.40
18101;DHT22;9177;49.156;8.142;2023-11-21T13:06:37;23.40;93.30
18101;DHT22;9177;49.156;8.142;2023-11-21T13:09:07;23.40;93.30
18101;DHT22;9177;49.156;8.142;2023-11-21T13:11:36;23.50;93.20
18101;DHT22;9177;49.156;8.142;2023-11-21T13:14:06;23.50;93.20
18101;DHT22;9177;49.156;8.142;2023-11-21T13:16:33;23.60;93.20
18101;DHT22;9177;49.156;8.142;2023-11-21T13:19:02;23.60;93.10
18101;DHT22;9177;49.156;8.142;2023-11-21T13:21:29;23.50;93.10
18101;DHT22;9177;49.156;8.142;2023-11-21T13:23:56;23.50;93.20
18101;DHT22;9177;49.156;8.142;2023-11-21T13:26:23;23.50;93.20
18101;DHT22;9177;49.156;8.142;2023-11-21T13:28:52;23.50;93.20
18101;DHT22;9177;49.156;8.142;2023-11-21T13:31:19;23.50;93.30
18101;DHT22;9177;49.156;8.142;2023-11-21T13:33:52;23.40;93.30
18101;DHT22;9177;49.156;8.142;2023-11-21T13:36:26;23.40;93.30
18101;DHT22;9177;49.156;8.142;2023-11-21T13:38:57;23.40;93.30
18101;DHT22;9177;49.156;8.142;2023-11-21T13:41:24;23.40;93.40
18101;DHT22;9177;49.156;8.142;2023-11-21T13:43:56;23.40;93.40
18101;DHT22;9177;49.156;8.142;2023-11-21T13:46:31;23.40;93.40
18101;DHT22;9177;49.156;8.142;2023-11-21T13:49:02;23.30;93.40
18101;DHT22;9177;49.156;8.142;2023-11-21T13:51:37;23.30;93.40
18101;DHT22;9177;49.156;8.142;2023-11-21T13:54:10;23.30;93.40
18101;DHT22;9177;49.156;8.142;2023-11-21T13:56:37;23.40;93.50
18101;DHT22;9177;49.156;8.142;2023-11-21T13:59:06;23.30;93.50
18101;DHT22;9177;49.156;8.142;2023-11-21T14:01:42;23.30;93.50
18101;DHT22;9177;49.156;8.142;2023-11-21T14:04:20;23.30;93.60
18101;DHT22;9177;49.156;8.142;2023-11-21T14:07:04;23.30;93.50
18101;DHT22;9177;49.156;8.142;2023-11-21T14:09:48;23.30;93.50
18101;DHT22;9177;49.156;8.142;2023-11-21T14:12:16;23.30;93.50
18101;DHT22;9177;49.156;8.142;2023-11-21T14:14:43;23.30;93.50
18101;DHT22;9177;49.156;8.142;2023-11-21T14:17:12;23.40;93.50
18101;DHT22;9177;49.156;8.142;2023-11-21T14:19:40;23.30;93.60
18101;DHT22;9177;49.156;8.142;2023-11-21T14:22:10;23.30;93.50
18101;DHT22;9177;49.156;8.142;2023-11-21T14:24:39;23.40;93.50
18101;DHT22;9177;49.156;8.142;2023-11-21T14:27:09;23.30;93.50
18101;DHT22;9177;49.156;8.142;2023-11-21T14:29:37;23.30;93.50
18101;DHT22;9177;49.156;8.142;2023-11-21T14:32:08;23.30;93.50
18101;DHT22;9177;49.156;8.142;2023-11-21T14:34:35;23.40;93.50
18101;DHT22;9177;49.156;8.142;2023-11-21T14:37:04;23.30;93.50
18101;DHT22;9177;49.156;8.142;2023-11-21T14:39:34;23.30;93.50
18101;DHT22;9177;49.156;8.142;2023-11-21T14:42:06;23.30;93.50
18101;DHT22;9177;49.156;8.142;2023-11-21T14:44:34;23.30;93.50
18101;DHT22;9177;49.156;8.142;2023-11-21T14:47:06;23.30;93.50
18101;DHT22;9177;49.156;8.142;2023-11-21T14:49:41;23.20;93.50
18101;DHT22;9177;49.156;8.142;2023-11-21T14:52:18;23.20;93.50
18101;DHT22;9177;49.156;8.142;2023-11-21T14:55:00;23.20;93.50
18101;DHT22;9177;49.156;8.142;2023-11-21T14:57:48;23.20;93.50
18101;DHT22;9177;49.156;8.142;2023-11-21T15:00:16;23.30;93.40
18101;DHT22;9177;49.156;8.142;2023-11-21T15:02:58;23.30;93.40
18101;DHT22;9177;49.156;8.142;2023-11-21T15:05:26;23.30;93.40
18101;DHT22;9177;49.156;8.142;2023-11-21T15:07:53;23.30;93.50
18101;DHT22;9177;49.156;8.142;2023-11-21T15:10:35;23.30;93.50
18101;DHT22;9177;49.156;8.142;2023-11-21T15:13:11;23.20;93.50
18101;DHT22;9177;49.156;8.142;2023-11-21T15:15:39;23.20;93.50
18101;DHT22;9177;49.156;8.142;2023-11-21T15:18:07;23.20;93.50
18101;DHT22;9177;49.156;8.142;2023-11-21T15:20:37;23.20;93.40
18101;DHT22;9177;49.156;8.142;2023-11-21T15:23:04;23.20;93.40
18101;DHT22;9177;49.156;8.142;2023-11-21T15:25:32;23.20;93.40
18101;DHT22;9177;49.156;8.142;2023-11-21T15:28:01;23.20;93.40
18101;DHT22;9177;49.156;8.142;2023-11-21T15:30:30;23.20;93.40
18101;DHT22;9177;49.156;8.142;2023-11-21T15:32:59;23.20;93.40
18101;DHT22;9177;49.156;8.142;2023-11-21T15:35:26;23.20;93.40
18101;DHT22;9177;49.156;8.142;2023-11-21T15:37:54;23.20;93.40
18101;DHT22;9177;49.156;8.142;2023-11-21T15:40:23;23.20;93.40
18101;DHT22;9177;49.156;8.142;2023-11-21T15:42:51;23.20;93.40
18101;DHT22;9177;49.156;8.142;2023-11-21T15:45:19;23.20;93.50
18101;DHT22;9177;49.156;8.142;2023-11-21T15:47:50;23.20;93.50
18101;DHT22;9177;49.156;8.142;2023-11-21T15:50:18;23.20;93.40
18101;DHT22;9177;49.156;8.142;2023-11-21T15:52:45;23.20;93.40
18101;DHT22;9177;49.156;8.142;2023-11-21T15:55:13;23.20;93.40
18101;DHT22;9177;49.156;8.142;2023-11-21T15:57:40;23.20;93.50
18101;DHT22;9177;49.156;8.142;2023-11-21T16:00:09;23.20;93.50